PWSweather.com
Personal Weather Stations
Station Observations
KNVELKO7
Elko, NV 89801

Elko, NV 89801

Lat: 40.963233, Lon: -115.592836

Elevation: 5230

Station Type: WS-2812

High Low Average
Temperature 88.4°F31.3°C 52.6°F11.4°C 72.0°F22.2°C
Dew Point 56.6°F13.7°C 43.0°F6.1°C 48.6°F9.2°C
Winds 17.5 mph 28.2 kmh Calm Calm 7.0 mph S11.3 kmh S
Wind Gusts 23.5 mph37.8 kmh 1.1 mph1.8 kmh 10.0 mph16.1 kmh
Humidity 78% 24% 47%
Pressure 30.23 in1023.7 mb 30.07 in1018.3 mb -
Precipitation 0.00 in0.0 mm - -
Hour Temp Dew Point Humidity Winds Wind Gusts Pressure Precip Precip Rate Daily Precip Total
12:02 AM 61.2°F16.2°C 50.2°F10.1°C 67% 5.4 mph WSW8.7 kmh WSW 5.8 mph9.3 kmh 30.06 in1017.9 mb 0.00 in0.0 mm 0.00 in/hr0.0 mm/hr 0.00 in0.0 mm
12:07 AM 61.2°F16.2°C 51.0°F10.6°C 69% 8.3 mph SW13.4 kmh SW 9.2 mph14.8 kmh 30.06 in1017.9 mb 0.00 in0.0 mm 0.00 in/hr0.0 mm/hr 0.00 in0.0 mm
12:12 AM 61.0°F16.1°C 50.5°F10.3°C 68% 6.5 mph SW10.5 kmh SW 9.2 mph14.8 kmh 30.06 in1017.9 mb 0.00 in0.0 mm 0.00 in/hr0.0 mm/hr 0.00 in0.0 mm
12:17 AM 61.0°F16.1°C 50.9°F10.5°C 69% 7.9 mph WSW12.7 kmh WSW 8.7 mph14.0 kmh 30.06 in1017.9 mb 0.00 in0.0 mm 0.00 in/hr0.0 mm/hr 0.00 in0.0 mm
12:22 AM 61.0°F16.1°C 50.9°F10.5°C 69% 4.1 mph WSW6.6 kmh WSW 9.2 mph14.8 kmh 30.06 in1017.9 mb 0.00 in0.0 mm 0.00 in/hr0.0 mm/hr 0.00 in0.0 mm
12:27 AM 60.8°F16.0°C 50.3°F10.2°C 68% 3.8 mph SW6.1 kmh SW 9.2 mph14.8 kmh 30.06 in1017.9 mb 0.00 in0.0 mm 0.00 in/hr0.0 mm/hr 0.00 in0.0 mm
12:32 AM 60.8°F16.0°C 50.3°F10.2°C 68% 2.8 mph SW4.5 kmh SW 6.0 mph9.7 kmh 30.06 in1017.9 mb 0.00 in0.0 mm 0.00 in/hr0.0 mm/hr 0.00 in0.0 mm
12:37 AM 61.0°F16.1°C 50.5°F10.3°C 68% 3.2 mph WSW5.1 kmh WSW 5.6 mph9.0 kmh 30.06 in1017.9 mb 0.00 in0.0 mm 0.00 in/hr0.0 mm/hr 0.00 in0.0 mm
12:42 AM 61.0°F16.1°C 50.0°F10.0°C 67% 0.3 mph NNW0.5 kmh NNW 5.6 mph9.0 kmh 30.06 in1017.9 mb 0.00 in0.0 mm 0.00 in/hr0.0 mm/hr 0.00 in0.0 mm
12:47 AM 60.8°F16.0°C 49.9°F9.9°C 67% 0.4 mph N0.6 kmh N 1.6 mph2.6 kmh 30.06 in1017.9 mb 0.00 in0.0 mm 0.00 in/hr0.0 mm/hr 0.00 in0.0 mm
12:52 AM 60.7°F15.9°C 49.7°F9.8°C 67% 0.8 mph WSW1.3 kmh WSW 0.9 mph1.4 kmh 30.07 in1018.3 mb 0.00 in0.0 mm 0.00 in/hr0.0 mm/hr 0.00 in0.0 mm
12:57 AM 60.3°F15.7°C 49.3°F9.6°C 67% 3.5 mph WSW5.6 kmh WSW 4.9 mph7.9 kmh 30.07 in1018.3 mb 0.00 in0.0 mm 0.00 in/hr0.0 mm/hr 0.00 in0.0 mm
01:03 AM 60.3°F15.7°C 49.8°F9.9°C 68% 2.9 mph W4.7 kmh W 4.9 mph7.9 kmh 30.07 in1018.3 mb 0.00 in0.0 mm 0.00 in/hr0.0 mm/hr 0.00 in0.0 mm
01:08 AM 60.3°F15.7°C 49.3°F9.6°C 67% 2.5 mph WSW4.0 kmh WSW 4.7 mph7.6 kmh 30.07 in1018.3 mb 0.00 in0.0 mm 0.00 in/hr0.0 mm/hr 0.00 in0.0 mm
01:13 AM 60.1°F15.6°C 49.1°F9.5°C 67% 3.0 mph SW4.8 kmh SW 4.7 mph7.6 kmh 30.07 in1018.3 mb 0.00 in0.0 mm 0.00 in/hr0.0 mm/hr 0.00 in0.0 mm
01:18 AM 60.3°F15.7°C 49.3°F9.6°C 67% 3.0 mph W4.8 kmh W 4.3 mph6.9 kmh 30.07 in1018.3 mb 0.00 in0.0 mm 0.00 in/hr0.0 mm/hr 0.00 in0.0 mm
01:23 AM 60.3°F15.7°C 49.3°F9.6°C 67% 1.5 mph NW2.4 kmh NW 4.3 mph6.9 kmh 30.07 in1018.3 mb 0.00 in0.0 mm 0.00 in/hr0.0 mm/hr 0.00 in0.0 mm
01:28 AM 60.1°F15.6°C 48.8°F9.3°C 66% 1.0 mph W1.6 kmh W 3.1 mph5.0 kmh 30.07 in1018.3 mb 0.00 in0.0 mm 0.00 in/hr0.0 mm/hr 0.00 in0.0 mm
01:33 AM 60.1°F15.6°C 48.8°F9.3°C 66% Calm Calm 2.5 mph4.0 kmh 30.07 in1018.3 mb 0.00 in0.0 mm 0.00 in/hr0.0 mm/hr 0.00 in0.0 mm
01:38 AM 59.6°F15.3°C 48.3°F9.1°C 66% 0.6 mph SW1.0 kmh SW 2.5 mph4.0 kmh 30.07 in1018.3 mb 0.00 in0.0 mm 0.00 in/hr0.0 mm/hr 0.00 in0.0 mm
01:43 AM 59.4°F15.2°C 48.1°F8.9°C 66% 1.5 mph SW2.4 kmh SW 2.5 mph4.0 kmh 30.07 in1018.3 mb 0.00 in0.0 mm 0.00 in/hr0.0 mm/hr 0.00 in0.0 mm
01:48 AM 59.0°F15.0°C 48.1°F8.9°C 67% 0.8 mph S1.3 kmh S 2.2 mph3.5 kmh 30.07 in1018.3 mb 0.00 in0.0 mm 0.00 in/hr0.0 mm/hr 0.00 in0.0 mm
01:53 AM 58.9°F14.9°C 47.9°F8.8°C 67% 0.8 mph SSW1.3 kmh SSW 1.8 mph2.9 kmh 30.07 in1018.3 mb 0.00 in0.0 mm 0.00 in/hr0.0 mm/hr 0.00 in0.0 mm
01:58 AM 58.7°F14.8°C 47.7°F8.7°C 67% 2.5 mph ENE4.0 kmh ENE 2.5 mph4.0 kmh 30.08 in1018.6 mb 0.00 in0.0 mm 0.00 in/hr0.0 mm/hr 0.00 in0.0 mm
02:03 AM 58.3°F14.6°C 47.3°F8.5°C 67% 5.9 mph NE9.5 kmh NE 6.3 mph10.1 kmh 30.07 in1018.3 mb 0.00 in0.0 mm 0.00 in/hr0.0 mm/hr 0.00 in0.0 mm
02:08 AM 58.1°F14.5°C 47.3°F8.5°C 67% 2.3 mph NE3.7 kmh NE 6.3 mph10.1 kmh 30.08 in1018.6 mb 0.00 in0.0 mm 0.00 in/hr0.0 mm/hr 0.00 in0.0 mm
02:13 AM 57.8°F14.3°C 47.3°F8.5°C 68% 0.6 mph NNE1.0 kmh NNE 5.1 mph8.2 kmh 30.08 in1018.6 mb 0.00 in0.0 mm 0.00 in/hr0.0 mm/hr 0.00 in0.0 mm
02:18 AM 57.6°F14.2°C 47.1°F8.4°C 68% 1.7 mph ENE2.7 kmh ENE 4.3 mph6.9 kmh 30.08 in1018.6 mb 0.00 in0.0 mm 0.00 in/hr0.0 mm/hr 0.00 in0.0 mm
02:23 AM 57.4°F14.1°C 46.9°F8.3°C 68% 1.5 mph NE2.4 kmh NE 3.1 mph5.0 kmh 30.08 in1018.6 mb 0.00 in0.0 mm 0.00 in/hr0.0 mm/hr 0.00 in0.0 mm
02:28 AM 57.2°F14.0°C 47.2°F8.4°C 69% 2.6 mph NE4.2 kmh NE 3.1 mph5.0 kmh 30.08 in1018.6 mb 0.00 in0.0 mm 0.00 in/hr0.0 mm/hr 0.00 in0.0 mm
02:33 AM 57.1°F13.9°C 47.0°F8.3°C 69% 2.5 mph NE4.0 kmh NE 3.1 mph5.0 kmh 30.08 in1018.6 mb 0.00 in0.0 mm 0.00 in/hr0.0 mm/hr 0.00 in0.0 mm
02:38 AM 57.1°F13.9°C 47.0°F8.3°C 69% 2.4 mph NE3.9 kmh NE 3.1 mph5.0 kmh 30.08 in1018.6 mb 0.00 in0.0 mm 0.00 in/hr0.0 mm/hr 0.00 in0.0 mm
02:43 AM 56.9°F13.8°C 47.5°F8.6°C 71% 4.7 mph ENE7.6 kmh ENE 4.7 mph7.6 kmh 30.08 in1018.6 mb 0.00 in0.0 mm 0.00 in/hr0.0 mm/hr 0.00 in0.0 mm
02:48 AM 56.9°F13.8°C 47.5°F8.6°C 71% 2.3 mph ENE3.7 kmh ENE 5.1 mph8.2 kmh 30.08 in1018.6 mb 0.00 in0.0 mm 0.00 in/hr0.0 mm/hr 0.00 in0.0 mm
02:53 AM 57.1°F13.9°C 47.3°F8.5°C 70% 4.3 mph ENE6.9 kmh ENE 5.1 mph8.2 kmh 30.08 in1018.6 mb 0.00 in0.0 mm 0.00 in/hr0.0 mm/hr 0.00 in0.0 mm
02:58 AM 56.9°F13.8°C 46.8°F8.2°C 69% 2.6 mph N4.2 kmh N 5.1 mph8.2 kmh 30.08 in1018.6 mb 0.00 in0.0 mm 0.00 in/hr0.0 mm/hr 0.00 in0.0 mm
03:04 AM 56.5°F13.6°C 46.9°F8.3°C 70% 1.9 mph N3.1 kmh N 5.1 mph8.2 kmh 30.08 in1018.6 mb 0.00 in0.0 mm 0.00 in/hr0.0 mm/hr 0.00 in0.0 mm
03:09 AM 56.3°F13.5°C 46.7°F8.2°C 70% 3.4 mph 5.5 kmh 3.4 mph5.5 kmh 30.08 in1018.6 mb 0.00 in0.0 mm 0.00 in/hr0.0 mm/hr 0.00 in0.0 mm
03:14 AM 56.2°F13.4°C 46.5°F8.1°C 70% 3.6 mph 5.8 kmh 4.7 mph7.6 kmh 30.08 in1018.6 mb 0.00 in0.0 mm 0.00 in/hr0.0 mm/hr 0.00 in0.0 mm
03:19 AM 56.2°F13.4°C 47.3°F8.5°C 72% 4.3 mph NE6.9 kmh NE 4.7 mph7.6 kmh 30.09 in1019.0 mb 0.00 in0.0 mm 0.00 in/hr0.0 mm/hr 0.00 in0.0 mm
03:24 AM 56.5°F13.6°C 47.6°F8.7°C 72% 2.9 mph NE4.7 kmh NE 4.7 mph7.6 kmh 30.09 in1019.0 mb 0.00 in0.0 mm 0.00 in/hr0.0 mm/hr 0.00 in0.0 mm
03:29 AM 56.7°F13.7°C 47.7°F8.7°C 72% 4.0 mph NE6.4 kmh NE 6.0 mph9.7 kmh 30.09 in1019.0 mb 0.00 in0.0 mm 0.00 in/hr0.0 mm/hr 0.00 in0.0 mm
03:34 AM 57.2°F14.0°C 47.9°F8.8°C 71% 2.9 mph WSW4.7 kmh WSW 6.0 mph9.7 kmh 30.09 in1019.0 mb 0.00 in0.0 mm 0.00 in/hr0.0 mm/hr 0.00 in0.0 mm
03:39 AM 57.4°F14.1°C 47.7°F8.7°C 70% 1.6 mph W2.6 kmh W 5.1 mph8.2 kmh 30.09 in1019.0 mb 0.00 in0.0 mm 0.00 in/hr0.0 mm/hr 0.00 in0.0 mm
03:44 AM 57.2°F14.0°C 47.2°F8.4°C 69% 1.5 mph NNE2.4 kmh NNE 3.4 mph5.5 kmh 30.09 in1019.0 mb 0.00 in0.0 mm 0.00 in/hr0.0 mm/hr 0.00 in0.0 mm
03:49 AM 56.9°F13.8°C 47.2°F8.4°C 70% 0.3 mph NW0.5 kmh NW 3.6 mph5.8 kmh 30.09 in1019.0 mb 0.00 in0.0 mm 0.00 in/hr0.0 mm/hr 0.00 in0.0 mm
03:54 AM 56.5°F13.6°C 46.9°F8.3°C 70% Calm Calm 3.6 mph5.8 kmh 30.09 in1019.0 mb 0.00 in0.0 mm 0.00 in/hr0.0 mm/hr 0.00 in0.0 mm
03:59 AM 56.3°F13.5°C 46.7°F8.2°C 70% 1.9 mph NNE3.1 kmh NNE 2.5 mph4.0 kmh 30.09 in1019.0 mb 0.00 in0.0 mm 0.00 in/hr0.0 mm/hr 0.00 in0.0 mm
04:04 AM 56.3°F13.5°C 46.7°F8.2°C 70% 0.3 mph NNW0.5 kmh NNW 2.5 mph4.0 kmh 30.09 in1019.0 mb 0.00 in0.0 mm 0.00 in/hr0.0 mm/hr 0.00 in0.0 mm
04:09 AM 56.2°F13.4°C 46.5°F8.1°C 70% 0.2 mph 0.3 kmh 2.5 mph4.0 kmh 30.09 in1019.0 mb 0.00 in0.0 mm 0.00 in/hr0.0 mm/hr 0.00 in0.0 mm
04:14 AM 55.8°F13.2°C 46.3°F7.9°C 70% Calm Calm 2.5 mph4.0 kmh 30.09 in1019.0 mb 0.00 in0.0 mm 0.00 in/hr0.0 mm/hr 0.00 in0.0 mm
04:19 AM 55.6°F13.1°C 46.1°F7.8°C 70% 1.0 mph NE1.6 kmh NE 1.3 mph2.1 kmh 30.09 in1019.0 mb 0.00 in0.0 mm 0.00 in/hr0.0 mm/hr 0.00 in0.0 mm
04:24 AM 55.4°F13.0°C 45.9°F7.7°C 70% 0.6 mph NE1.0 kmh NE 2.2 mph3.5 kmh 30.09 in1019.0 mb 0.00 in0.0 mm 0.00 in/hr0.0 mm/hr 0.00 in0.0 mm
04:29 AM 55.1°F12.8°C 45.9°F7.7°C 71% 0.8 mph NNW1.3 kmh NNW 2.9 mph4.7 kmh 30.09 in1019.0 mb 0.00 in0.0 mm 0.00 in/hr0.0 mm/hr 0.00 in0.0 mm
04:34 AM 54.5°F12.5°C 45.4°F7.4°C 71% 0.2 mph NNW0.3 kmh NNW 2.9 mph4.7 kmh 30.09 in1019.0 mb 0.00 in0.0 mm 0.00 in/hr0.0 mm/hr 0.00 in0.0 mm
04:39 AM 54.4°F12.4°C 45.2°F7.3°C 71% 0.3 mph 0.5 kmh 1.6 mph2.6 kmh 30.09 in1019.0 mb 0.00 in0.0 mm 0.00 in/hr0.0 mm/hr 0.00 in0.0 mm
04:44 AM 54.4°F12.4°C 45.2°F7.3°C 71% 0.6 mph 1.0 kmh 1.6 mph2.6 kmh 30.09 in1019.0 mb 0.00 in0.0 mm 0.00 in/hr0.0 mm/hr 0.00 in0.0 mm
04:49 AM 54.4°F12.4°C 45.2°F7.3°C 71% 3.0 mph 4.8 kmh 4.0 mph6.4 kmh 30.09 in1019.0 mb 0.00 in0.0 mm 0.00 in/hr0.0 mm/hr 0.00 in0.0 mm
04:54 AM 54.0°F12.2°C 44.8°F7.1°C 71% 1.3 mph 2.1 kmh 4.0 mph6.4 kmh 30.09 in1019.0 mb 0.00 in0.0 mm 0.00 in/hr0.0 mm/hr 0.00 in0.0 mm
05:00 AM 53.6°F12.0°C 44.8°F7.1°C 72% 3.7 mph NNE6.0 kmh NNE 4.7 mph7.6 kmh 30.09 in1019.0 mb 0.00 in0.0 mm 0.00 in/hr0.0 mm/hr 0.00 in0.0 mm
05:05 AM 53.6°F12.0°C 45.2°F7.3°C 73% 1.3 mph 2.1 kmh 5.4 mph8.7 kmh 30.09 in1019.0 mb 0.00 in0.0 mm 0.00 in/hr0.0 mm/hr 0.00 in0.0 mm
05:10 AM 53.5°F11.9°C 45.0°F7.2°C 73% 0.3 mph N0.5 kmh N 5.4 mph8.7 kmh 30.10 in1019.3 mb 0.00 in0.0 mm 0.00 in/hr0.0 mm/hr 0.00 in0.0 mm
05:15 AM 53.3°F11.8°C 44.8°F7.1°C 73% 3.3 mph 5.3 kmh 4.9 mph7.9 kmh 30.10 in1019.3 mb 0.00 in0.0 mm 0.00 in/hr0.0 mm/hr 0.00 in0.0 mm
05:20 AM 53.5°F11.9°C 45.4°F7.4°C 74% 2.1 mph 3.4 kmh 4.9 mph7.9 kmh 30.10 in1019.3 mb 0.00 in0.0 mm 0.00 in/hr0.0 mm/hr 0.00 in0.0 mm
05:25 AM 53.6°F12.0°C 45.9°F7.7°C 75% 2.8 mph N4.5 kmh N 4.5 mph7.2 kmh 30.11 in1019.6 mb 0.00 in0.0 mm 0.00 in/hr0.0 mm/hr 0.00 in0.0 mm
05:30 AM 53.6°F12.0°C 45.9°F7.7°C 75% 3.3 mph NE5.3 kmh NE 4.9 mph7.9 kmh 30.11 in1019.6 mb 0.00 in0.0 mm 0.00 in/hr0.0 mm/hr 0.00 in0.0 mm
05:35 AM 53.6°F12.0°C 45.9°F7.7°C 75% 4.4 mph NE7.1 kmh NE 5.4 mph8.7 kmh 30.11 in1019.6 mb 0.00 in0.0 mm 0.00 in/hr0.0 mm/hr 0.00 in0.0 mm
05:40 AM 53.5°F11.9°C 45.7°F7.6°C 75% 5.1 mph 8.2 kmh 5.6 mph9.0 kmh 30.11 in1019.6 mb 0.00 in0.0 mm 0.00 in/hr0.0 mm/hr 0.00 in0.0 mm
05:45 AM 53.1°F11.7°C 45.7°F7.6°C 76% 4.9 mph NNE7.9 kmh NNE 5.6 mph9.0 kmh 30.11 in1019.6 mb 0.00 in0.0 mm 0.00 in/hr0.0 mm/hr 0.00 in0.0 mm
05:50 AM 53.1°F11.7°C 45.7°F7.6°C 76% 4.3 mph NNE6.9 kmh NNE 5.6 mph9.0 kmh 30.12 in1020.0 mb 0.00 in0.0 mm 0.00 in/hr0.0 mm/hr 0.00 in0.0 mm
05:54 AM 53.1°F11.7°C 45.7°F7.6°C 76% 1.1 mph ENE1.8 kmh ENE 4.5 mph7.2 kmh 30.12 in1020.0 mb 0.00 in0.0 mm 0.00 in/hr0.0 mm/hr 0.00 in0.0 mm
06:00 AM 53.1°F11.7°C 45.4°F7.4°C 75% 1.5 mph S2.4 kmh S 1.8 mph2.9 kmh 30.12 in1020.0 mb 0.00 in0.0 mm 0.00 in/hr0.0 mm/hr 0.00 in0.0 mm
06:05 AM 52.9°F11.6°C 45.2°F7.3°C 75% 0.7 mph E1.1 kmh E 2.7 mph4.3 kmh 30.12 in1020.0 mb 0.00 in0.0 mm 0.00 in/hr0.0 mm/hr 0.00 in0.0 mm
06:10 AM 52.6°F11.4°C 44.9°F7.2°C 75% 0.3 mph SW0.5 kmh SW 2.7 mph4.3 kmh 30.12 in1020.0 mb 0.00 in0.0 mm 0.00 in/hr0.0 mm/hr 0.00 in0.0 mm
06:15 AM 52.6°F11.4°C 44.9°F7.2°C 75% 0.2 mph WSW0.3 kmh WSW 2.0 mph3.2 kmh 30.12 in1020.0 mb 0.00 in0.0 mm 0.00 in/hr0.0 mm/hr 0.00 in0.0 mm
06:20 AM 52.7°F11.5°C 45.4°F7.4°C 76% 2.3 mph N3.7 kmh N 2.9 mph4.7 kmh 30.12 in1020.0 mb 0.00 in0.0 mm 0.00 in/hr0.0 mm/hr 0.00 in0.0 mm
06:25 AM 52.7°F11.5°C 45.4°F7.4°C 76% 3.3 mph 5.3 kmh 4.7 mph7.6 kmh 30.13 in1020.3 mb 0.00 in0.0 mm 0.00 in/hr0.0 mm/hr 0.00 in0.0 mm
06:30 AM 52.9°F11.6°C 45.9°F7.7°C 77% 4.3 mph 6.9 kmh 4.9 mph7.9 kmh 30.13 in1020.3 mb 0.00 in0.0 mm 0.00 in/hr0.0 mm/hr 0.00 in0.0 mm
06:35 AM 53.1°F11.7°C 46.1°F7.8°C 77% 2.0 mph N3.2 kmh N 4.9 mph7.9 kmh 30.13 in1020.3 mb 0.00 in0.0 mm 0.00 in/hr0.0 mm/hr 0.00 in0.0 mm
06:40 AM 53.6°F12.0°C 46.6°F8.1°C 77% 2.5 mph 4.0 kmh 3.8 mph6.1 kmh 30.13 in1020.3 mb 0.00 in0.0 mm 0.00 in/hr0.0 mm/hr 0.00 in0.0 mm
06:45 AM 54.0°F12.2°C 47.4°F8.6°C 78% 1.0 mph N1.6 kmh N 3.8 mph6.1 kmh 30.13 in1020.3 mb 0.00 in0.0 mm 0.00 in/hr0.0 mm/hr 0.00 in0.0 mm
06:50 AM 54.7°F12.6°C 48.0°F8.9°C 78% 1.1 mph 1.8 kmh 1.8 mph2.9 kmh 30.13 in1020.3 mb 0.00 in0.0 mm 0.00 in/hr0.0 mm/hr 0.00 in0.0 mm
06:55 AM 55.4°F13.0°C 48.6°F9.2°C 78% 1.1 mph WSW1.8 kmh WSW 1.6 mph2.6 kmh 30.13 in1020.3 mb 0.00 in0.0 mm 0.00 in/hr0.0 mm/hr 0.00 in0.0 mm
07:00 AM 56.0°F13.3°C 49.1°F9.5°C 78% Calm Calm 1.1 mph1.8 kmh 30.13 in1020.3 mb 0.00 in0.0 mm 0.00 in/hr0.0 mm/hr 0.00 in0.0 mm
07:05 AM 56.3°F13.5°C 49.1°F9.5°C 77% 1.5 mph NW2.4 kmh NW 2.7 mph4.3 kmh 30.13 in1020.3 mb 0.00 in0.0 mm 0.00 in/hr0.0 mm/hr 0.00 in0.0 mm
07:10 AM 56.9°F13.8°C 49.3°F9.6°C 76% 1.8 mph NNW2.9 kmh NNW 2.7 mph4.3 kmh 30.13 in1020.3 mb 0.00 in0.0 mm 0.00 in/hr0.0 mm/hr 0.00 in0.0 mm
07:15 AM 57.1°F13.9°C 49.1°F9.5°C 75% 0.3 mph 0.5 kmh 2.5 mph4.0 kmh 30.13 in1020.3 mb 0.00 in0.0 mm 0.00 in/hr0.0 mm/hr 0.00 in0.0 mm
07:20 AM 57.2°F14.0°C 49.3°F9.6°C 75% 0.3 mph NNW0.5 kmh NNW 1.8 mph2.9 kmh 30.13 in1020.3 mb 0.00 in0.0 mm 0.00 in/hr0.0 mm/hr 0.00 in0.0 mm
07:25 AM 58.0°F14.4°C 50.0°F10.0°C 75% 0.2 mph NNW0.3 kmh NNW 1.8 mph2.9 kmh 30.13 in1020.3 mb 0.00 in0.0 mm 0.00 in/hr0.0 mm/hr 0.00 in0.0 mm
07:30 AM 59.2°F15.1°C 51.7°F10.9°C 76% 1.0 mph SE1.6 kmh SE 1.6 mph2.6 kmh 30.14 in1020.7 mb 0.00 in0.0 mm 0.00 in/hr0.0 mm/hr 0.00 in0.0 mm
07:35 AM 60.5°F15.8°C 52.6°F11.4°C 75% 0.6 mph SE1.0 kmh SE 1.6 mph2.6 kmh 30.14 in1020.7 mb 0.00 in0.0 mm 0.00 in/hr0.0 mm/hr 0.00 in0.0 mm
07:40 AM 61.6°F16.4°C 52.8°F11.6°C 73% 2.0 mph SE3.2 kmh SE 2.9 mph4.7 kmh 30.14 in1020.7 mb 0.00 in0.0 mm 0.00 in/hr0.0 mm/hr 0.00 in0.0 mm
07:45 AM 62.3°F16.8°C 53.1°F11.7°C 72% 1.1 mph SE1.8 kmh SE 2.9 mph4.7 kmh 30.14 in1020.7 mb 0.00 in0.0 mm 0.00 in/hr0.0 mm/hr 0.00 in0.0 mm
07:50 AM 62.8°F17.1°C 53.3°F11.8°C 71% 0.6 mph ESE1.0 kmh ESE 1.6 mph2.6 kmh 30.14 in1020.7 mb 0.00 in0.0 mm 0.00 in/hr0.0 mm/hr 0.00 in0.0 mm
07:55 AM 63.9°F17.7°C 54.0°F12.2°C 70% 1.6 mph SE2.6 kmh SE 2.0 mph3.2 kmh 30.14 in1020.7 mb 0.00 in0.0 mm 0.00 in/hr0.0 mm/hr 0.00 in0.0 mm
08:01 AM 65.2°F18.4°C 55.2°F12.9°C 70% 2.0 mph SSE3.2 kmh SSE 2.2 mph3.5 kmh 30.14 in1020.7 mb 0.00 in0.0 mm 0.00 in/hr0.0 mm/hr 0.00 in0.0 mm
08:06 AM 66.4°F19.1°C 55.5°F13.1°C 68% 4.3 mph SE6.9 kmh SE 5.1 mph8.2 kmh 30.14 in1020.7 mb 0.00 in0.0 mm 0.00 in/hr0.0 mm/hr 0.00 in0.0 mm
08:11 AM 67.3°F19.6°C 55.5°F13.1°C 66% 2.4 mph S3.9 kmh S 5.1 mph8.2 kmh 30.14 in1020.7 mb 0.00 in0.0 mm 0.00 in/hr0.0 mm/hr 0.00 in0.0 mm
08:16 AM 68.0°F20.0°C 55.8°F13.2°C 65% 3.7 mph S6.0 kmh S 4.7 mph7.6 kmh 30.14 in1020.7 mb 0.00 in0.0 mm 0.00 in/hr0.0 mm/hr 0.00 in0.0 mm
08:21 AM 68.8°F20.4°C 56.1°F13.4°C 64% 2.3 mph SW3.7 kmh SW 4.7 mph7.6 kmh 30.14 in1020.7 mb 0.00 in0.0 mm 0.00 in/hr0.0 mm/hr 0.00 in0.0 mm
08:26 AM 69.8°F21.0°C 56.3°F13.5°C 62% 4.5 mph SW7.2 kmh SW 6.5 mph10.5 kmh 30.14 in1020.7 mb 0.00 in0.0 mm 0.00 in/hr0.0 mm/hr 0.00 in0.0 mm
08:31 AM 70.4°F21.3°C 56.3°F13.5°C 61% 5.9 mph SSW9.5 kmh SSW 6.5 mph10.5 kmh 30.14 in1020.7 mb 0.00 in0.0 mm 0.00 in/hr0.0 mm/hr 0.00 in0.0 mm
08:36 AM 71.1°F21.7°C 56.6°F13.7°C 60% 8.1 mph SSW13.0 kmh SSW 8.9 mph14.3 kmh 30.14 in1020.7 mb 0.00 in0.0 mm 0.00 in/hr0.0 mm/hr 0.00 in0.0 mm
08:41 AM 71.6°F22.0°C 56.5°F13.6°C 59% 9.3 mph S15.0 kmh S 9.8 mph15.8 kmh 30.14 in1020.7 mb 0.00 in0.0 mm 0.00 in/hr0.0 mm/hr 0.00 in0.0 mm
08:46 AM 72.0°F22.2°C 56.3°F13.5°C 58% 9.5 mph SW15.3 kmh SW 9.8 mph15.8 kmh 30.14 in1020.7 mb 0.00 in0.0 mm 0.00 in/hr0.0 mm/hr 0.00 in0.0 mm
08:51 AM 72.2°F22.3°C 55.5°F13.1°C 56% 7.9 mph SW12.7 kmh SW 9.8 mph15.8 kmh 30.14 in1020.7 mb 0.00 in0.0 mm 0.00 in/hr0.0 mm/hr 0.00 in0.0 mm
08:56 AM 72.5°F22.5°C 55.4°F13.0°C 55% 10.5 mph SW16.9 kmh SW 13.4 mph21.6 kmh 30.14 in1020.7 mb 0.00 in0.0 mm 0.00 in/hr0.0 mm/hr 0.00 in0.0 mm
09:02 AM 72.0°F22.2°C 53.4°F11.9°C 52% 11.5 mph SW18.5 kmh SW 14.3 mph23.0 kmh 30.14 in1020.7 mb 0.00 in0.0 mm 0.00 in/hr0.0 mm/hr 0.00 in0.0 mm
09:07 AM 71.6°F22.0°C 53.6°F12.0°C 53% 10.4 mph SW16.7 kmh SW 14.3 mph23.0 kmh 30.14 in1020.7 mb 0.00 in0.0 mm 0.00 in/hr0.0 mm/hr 0.00 in0.0 mm
09:12 AM 71.6°F22.0°C 54.0°F12.2°C 54% 9.5 mph SSW15.3 kmh SSW 11.4 mph18.3 kmh 30.14 in1020.7 mb 0.00 in0.0 mm 0.00 in/hr0.0 mm/hr 0.00 in0.0 mm
09:17 AM 72.0°F22.2°C 54.4°F12.4°C 54% 12.2 mph SW19.6 kmh SW 13.9 mph22.4 kmh 30.14 in1020.7 mb 0.00 in0.0 mm 0.00 in/hr0.0 mm/hr 0.00 in0.0 mm
09:22 AM 72.7°F22.6°C 54.6°F12.6°C 53% 12.4 mph SW20.0 kmh SW 13.9 mph22.4 kmh 30.14 in1020.7 mb 0.00 in0.0 mm 0.00 in/hr0.0 mm/hr 0.00 in0.0 mm
09:27 AM 73.1°F22.8°C 53.8°F12.1°C 51% 10.9 mph SSW17.5 kmh SSW 13.0 mph20.9 kmh 30.14 in1020.7 mb 0.00 in0.0 mm 0.00 in/hr0.0 mm/hr 0.00 in0.0 mm
09:32 AM 73.8°F23.2°C 54.6°F12.6°C 51% 10.6 mph SW17.1 kmh SW 12.8 mph20.6 kmh 30.14 in1020.7 mb 0.00 in0.0 mm 0.00 in/hr0.0 mm/hr 0.00 in0.0 mm
09:37 AM 74.2°F23.4°C 54.4°F12.4°C 50% 9.6 mph SW15.4 kmh SW 13.2 mph21.2 kmh 30.14 in1020.7 mb 0.00 in0.0 mm 0.00 in/hr0.0 mm/hr 0.00 in0.0 mm
09:41 AM 74.7°F23.7°C 53.7°F12.1°C 48% 12.4 mph SW20.0 kmh SW 13.9 mph22.4 kmh 30.14 in1020.7 mb 0.00 in0.0 mm 0.00 in/hr0.0 mm/hr 0.00 in0.0 mm
09:46 AM 75.2°F24.0°C 54.8°F12.7°C 49% 10.7 mph SW17.2 kmh SW 13.9 mph22.4 kmh 30.14 in1020.7 mb 0.00 in0.0 mm 0.00 in/hr0.0 mm/hr 0.00 in0.0 mm
09:51 AM 75.6°F24.2°C 53.9°F12.2°C 47% 7.1 mph SW11.4 kmh SW 12.3 mph19.8 kmh 30.15 in1021.0 mb 0.00 in0.0 mm 0.00 in/hr0.0 mm/hr 0.00 in0.0 mm
09:57 AM 76.0°F24.4°C 53.6°F12.0°C 46% 8.9 mph WSW14.3 kmh WSW 13.9 mph22.4 kmh 30.15 in1021.0 mb 0.00 in0.0 mm 0.00 in/hr0.0 mm/hr 0.00 in0.0 mm
10:02 AM 76.3°F24.6°C 54.0°F12.2°C 46% 7.7 mph SW12.4 kmh SW 13.9 mph22.4 kmh 30.15 in1021.0 mb 0.00 in0.0 mm 0.00 in/hr0.0 mm/hr 0.00 in0.0 mm
10:07 AM 76.9°F24.9°C 53.8°F12.1°C 45% 11.2 mph SW18.0 kmh SW 15.4 mph24.8 kmh 30.15 in1021.0 mb 0.00 in0.0 mm 0.00 in/hr0.0 mm/hr 0.00 in0.0 mm
10:12 AM 76.3°F24.6°C 52.7°F11.5°C 44% 10.9 mph SW17.5 kmh SW 15.4 mph24.8 kmh 30.14 in1020.7 mb 0.00 in0.0 mm 0.00 in/hr0.0 mm/hr 0.00 in0.0 mm
10:18 AM 75.4°F24.1°C 52.6°F11.4°C 45% 9.8 mph SW15.8 kmh SW 12.8 mph20.6 kmh 30.14 in1020.7 mb 0.00 in0.0 mm 0.00 in/hr0.0 mm/hr 0.00 in0.0 mm
10:23 AM 76.0°F24.4°C 53.6°F12.0°C 46% 9.9 mph SW15.9 kmh SW 16.3 mph26.2 kmh 30.15 in1021.0 mb 0.00 in0.0 mm 0.00 in/hr0.0 mm/hr 0.00 in0.0 mm
10:28 AM 76.3°F24.6°C 52.7°F11.5°C 44% 10.4 mph SW16.7 kmh SW 16.3 mph26.2 kmh 30.15 in1021.0 mb 0.00 in0.0 mm 0.00 in/hr0.0 mm/hr 0.00 in0.0 mm
10:33 AM 77.2°F25.1°C 53.6°F12.0°C 44% 12.8 mph SSW20.6 kmh SSW 14.8 mph23.8 kmh 30.15 in1021.0 mb 0.00 in0.0 mm 0.00 in/hr0.0 mm/hr 0.00 in0.0 mm
10:37 AM 77.8°F25.4°C 54.0°F12.2°C 44% 10.9 mph WSW17.5 kmh WSW 14.8 mph23.8 kmh 30.15 in1021.0 mb 0.00 in0.0 mm 0.00 in/hr0.0 mm/hr 0.00 in0.0 mm
10:42 AM 78.5°F25.8°C 54.7°F12.6°C 44% 10.1 mph S16.3 kmh S 14.1 mph22.7 kmh 30.15 in1021.0 mb 0.00 in0.0 mm 0.00 in/hr0.0 mm/hr 0.00 in0.0 mm
10:47 AM 79.0°F26.1°C 53.9°F12.2°C 42% 12.6 mph SW20.3 kmh SW 12.8 mph20.6 kmh 30.15 in1021.0 mb 0.00 in0.0 mm 0.00 in/hr0.0 mm/hr 0.00 in0.0 mm
10:52 AM 79.6°F26.4°C 54.5°F12.5°C 42% 12.1 mph SW19.5 kmh SW 14.8 mph23.8 kmh 30.15 in1021.0 mb 0.00 in0.0 mm 0.00 in/hr0.0 mm/hr 0.00 in0.0 mm
10:57 AM 79.2°F26.2°C 52.9°F11.6°C 40% 9.9 mph SW15.9 kmh SW 17.7 mph28.5 kmh 30.15 in1021.0 mb 0.00 in0.0 mm 0.00 in/hr0.0 mm/hr 0.00 in0.0 mm
11:03 AM 79.6°F26.4°C 53.2°F11.8°C 40% 14.1 mph SW22.7 kmh SW 17.7 mph28.5 kmh 30.15 in1021.0 mb 0.00 in0.0 mm 0.00 in/hr0.0 mm/hr 0.00 in0.0 mm
11:08 AM 79.9°F26.6°C 53.6°F12.0°C 40% 8.6 mph SW13.8 kmh SW 14.5 mph23.3 kmh 30.15 in1021.0 mb 0.00 in0.0 mm 0.00 in/hr0.0 mm/hr 0.00 in0.0 mm
11:13 AM 80.3°F26.8°C 53.1°F11.7°C 39% 8.0 mph SW12.9 kmh SW 11.4 mph18.3 kmh 30.15 in1021.0 mb 0.00 in0.0 mm 0.00 in/hr0.0 mm/hr 0.00 in0.0 mm
11:18 AM 80.3°F26.8°C 53.1°F11.7°C 39% 8.2 mph SW13.2 kmh SW 13.9 mph22.4 kmh 30.15 in1021.0 mb 0.00 in0.0 mm 0.00 in/hr0.0 mm/hr 0.00 in0.0 mm
11:23 AM 80.3°F26.8°C 52.3°F11.3°C 38% 11.1 mph WSW17.9 kmh WSW 16.6 mph26.7 kmh 30.15 in1021.0 mb 0.00 in0.0 mm 0.00 in/hr0.0 mm/hr 0.00 in0.0 mm
11:28 AM 80.1°F26.7°C 52.1°F11.2°C 38% 10.6 mph WSW17.1 kmh WSW 18.6 mph29.9 kmh 30.15 in1021.0 mb 0.00 in0.0 mm 0.00 in/hr0.0 mm/hr 0.00 in0.0 mm
11:33 AM 80.8°F27.1°C 52.0°F11.1°C 37% 14.7 mph SW23.7 kmh SW 18.6 mph29.9 kmh 30.15 in1021.0 mb 0.00 in0.0 mm 0.00 in/hr0.0 mm/hr 0.00 in0.0 mm
11:38 AM 81.2°F27.3°C 53.1°F11.7°C 38% 5.6 mph WSW9.0 kmh WSW 17.2 mph27.7 kmh 30.14 in1020.7 mb 0.00 in0.0 mm 0.00 in/hr0.0 mm/hr 0.00 in0.0 mm
11:43 AM 81.4°F27.4°C 52.5°F11.4°C 37% 11.9 mph SW19.2 kmh SW 23.5 mph37.8 kmh 30.14 in1020.7 mb 0.00 in0.0 mm 0.00 in/hr0.0 mm/hr 0.00 in0.0 mm
11:48 AM 81.7°F27.6°C 52.8°F11.6°C 37% 8.5 mph SW13.7 kmh SW 23.5 mph37.8 kmh 30.14 in1020.7 mb 0.00 in0.0 mm 0.00 in/hr0.0 mm/hr 0.00 in0.0 mm
11:53 AM 82.3°F27.9°C 54.1°F12.3°C 38% 6.6 mph SW10.6 kmh SW 14.1 mph22.7 kmh 30.14 in1020.7 mb 0.00 in0.0 mm 0.00 in/hr0.0 mm/hr 0.00 in0.0 mm
11:58 AM 82.8°F28.2°C 52.2°F11.2°C 35% 17.5 mph SW28.2 kmh SW 17.9 mph28.8 kmh 30.14 in1020.7 mb 0.00 in0.0 mm 0.00 in/hr0.0 mm/hr 0.00 in0.0 mm
12:04 PM 82.4°F28.0°C 51.8°F11.0°C 35% 14.9 mph SSW24.0 kmh SSW 18.8 mph30.3 kmh 30.14 in1020.7 mb 0.00 in0.0 mm 0.00 in/hr0.0 mm/hr 0.00 in0.0 mm
12:08 PM 82.4°F28.0°C 53.5°F11.9°C 37% 8.2 mph SW13.2 kmh SW 18.8 mph30.3 kmh 30.14 in1020.7 mb 0.00 in0.0 mm 0.00 in/hr0.0 mm/hr 0.00 in0.0 mm
12:13 PM 83.0°F28.3°C 52.3°F11.3°C 35% 13.5 mph SW21.7 kmh SW 18.8 mph30.3 kmh 30.14 in1020.7 mb 0.00 in0.0 mm 0.00 in/hr0.0 mm/hr 0.00 in0.0 mm
12:18 PM 83.2°F28.4°C 51.7°F10.9°C 34% 13.0 mph SW20.9 kmh SW 18.8 mph30.3 kmh 30.14 in1020.7 mb 0.00 in0.0 mm 0.00 in/hr0.0 mm/hr 0.00 in0.0 mm
12:23 PM 83.2°F28.4°C 51.7°F10.9°C 34% 12.4 mph SW20.0 kmh SW 17.4 mph28.0 kmh 30.14 in1020.7 mb 0.00 in0.0 mm 0.00 in/hr0.0 mm/hr 0.00 in0.0 mm
12:28 PM 82.8°F28.2°C 51.4°F10.8°C 34% 11.3 mph WSW18.2 kmh WSW 17.4 mph28.0 kmh 30.14 in1020.7 mb 0.00 in0.0 mm 0.00 in/hr0.0 mm/hr 0.00 in0.0 mm
12:33 PM 83.2°F28.4°C 51.7°F10.9°C 34% 15.9 mph SW25.6 kmh SW 17.9 mph28.8 kmh 30.14 in1020.7 mb 0.00 in0.0 mm 0.00 in/hr0.0 mm/hr 0.00 in0.0 mm
12:38 PM 83.2°F28.4°C 51.0°F10.6°C 33% 15.1 mph WSW24.3 kmh WSW 21.9 mph35.2 kmh 30.14 in1020.7 mb 0.00 in0.0 mm 0.00 in/hr0.0 mm/hr 0.00 in0.0 mm
12:43 PM 83.3°F28.5°C 50.3°F10.2°C 32% 11.4 mph SW18.3 kmh SW 21.9 mph35.2 kmh 30.14 in1020.7 mb 0.00 in0.0 mm 0.00 in/hr0.0 mm/hr 0.00 in0.0 mm
12:48 PM 83.3°F28.5°C 51.8°F11.0°C 34% 12.4 mph SSW20.0 kmh SSW 15.4 mph24.8 kmh 30.13 in1020.3 mb 0.00 in0.0 mm 0.00 in/hr0.0 mm/hr 0.00 in0.0 mm
12:53 PM 83.7°F28.7°C 51.4°F10.8°C 33% 11.2 mph SW18.0 kmh SW 17.2 mph27.7 kmh 30.13 in1020.3 mb 0.00 in0.0 mm 0.00 in/hr0.0 mm/hr 0.00 in0.0 mm
12:58 PM 84.1°F28.9°C 51.8°F11.0°C 33% 13.1 mph SW21.1 kmh SW 17.4 mph28.0 kmh 30.13 in1020.3 mb 0.00 in0.0 mm 0.00 in/hr0.0 mm/hr 0.00 in0.0 mm
01:04 PM 84.2°F29.0°C 51.8°F11.0°C 33% 10.2 mph SW16.4 kmh SW 17.4 mph28.0 kmh 30.13 in1020.3 mb 0.00 in0.0 mm 0.00 in/hr0.0 mm/hr 0.00 in0.0 mm
01:09 PM 84.2°F29.0°C 51.8°F11.0°C 33% 11.6 mph WSW18.7 kmh WSW 15.0 mph24.1 kmh 30.13 in1020.3 mb 0.00 in0.0 mm 0.00 in/hr0.0 mm/hr 0.00 in0.0 mm
01:14 PM 84.8°F29.3°C 51.6°F10.9°C 32% 5.5 mph SW8.9 kmh SW 15.0 mph24.1 kmh 30.13 in1020.3 mb 0.00 in0.0 mm 0.00 in/hr0.0 mm/hr 0.00 in0.0 mm
01:19 PM 85.5°F29.7°C 52.2°F11.2°C 32% 17.3 mph SW27.8 kmh SW 17.4 mph28.0 kmh 30.13 in1020.3 mb 0.00 in0.0 mm 0.00 in/hr0.0 mm/hr 0.00 in0.0 mm
01:24 PM 85.1°F29.5°C 50.3°F10.2°C 30% 10.4 mph WSW16.7 kmh WSW 17.4 mph28.0 kmh 30.13 in1020.3 mb 0.00 in0.0 mm 0.00 in/hr0.0 mm/hr 0.00 in0.0 mm
01:29 PM 85.3°F29.6°C 51.3°F10.7°C 31% 10.9 mph SW17.5 kmh SW 18.3 mph29.5 kmh 30.13 in1020.3 mb 0.00 in0.0 mm 0.00 in/hr0.0 mm/hr 0.00 in0.0 mm
01:34 PM 85.7°F29.8°C 52.4°F11.3°C 32% 15.8 mph SW25.4 kmh SW 18.3 mph29.5 kmh 30.12 in1020.0 mb 0.00 in0.0 mm 0.00 in/hr0.0 mm/hr 0.00 in0.0 mm
01:39 PM 86.0°F30.0°C 52.8°F11.6°C 32% 7.3 mph WSW11.7 kmh WSW 16.3 mph26.2 kmh 30.12 in1020.0 mb 0.00 in0.0 mm 0.00 in/hr0.0 mm/hr 0.00 in0.0 mm
01:44 PM 85.5°F29.7°C 49.6°F9.8°C 29% 13.8 mph WSW22.2 kmh WSW 19.7 mph31.7 kmh 30.12 in1020.0 mb 0.00 in0.0 mm 0.00 in/hr0.0 mm/hr 0.00 in0.0 mm
01:49 PM 84.8°F29.3°C 50.0°F10.0°C 30% 11.4 mph NW18.3 kmh NW 22.6 mph36.4 kmh 30.13 in1020.3 mb 0.00 in0.0 mm 0.00 in/hr0.0 mm/hr 0.00 in0.0 mm
01:54 PM 85.3°F29.6°C 50.5°F10.3°C 30% 12.4 mph SW20.0 kmh SW 22.6 mph36.4 kmh 30.12 in1020.0 mb 0.00 in0.0 mm 0.00 in/hr0.0 mm/hr 0.00 in0.0 mm
02:00 PM 85.1°F29.5°C 49.2°F9.6°C 29% 9.3 mph WSW15.0 kmh WSW 21.0 mph33.8 kmh 30.12 in1020.0 mb 0.00 in0.0 mm 0.00 in/hr0.0 mm/hr 0.00 in0.0 mm
02:05 PM 85.5°F29.7°C 50.7°F10.4°C 30% 7.2 mph SW11.6 kmh SW 21.0 mph33.8 kmh 30.12 in1020.0 mb 0.00 in0.0 mm 0.00 in/hr0.0 mm/hr 0.00 in0.0 mm
02:10 PM 86.0°F30.0°C 50.0°F10.0°C 29% 14.9 mph WSW24.0 kmh WSW 15.4 mph24.8 kmh 30.12 in1020.0 mb 0.00 in0.0 mm 0.00 in/hr0.0 mm/hr 0.00 in0.0 mm
02:15 PM 85.0°F29.4°C 50.1°F10.1°C 30% 10.6 mph SW17.1 kmh SW 15.4 mph24.8 kmh 30.12 in1020.0 mb 0.00 in0.0 mm 0.00 in/hr0.0 mm/hr 0.00 in0.0 mm
02:20 PM 85.3°F29.6°C 49.4°F9.7°C 29% 17.5 mph WSW28.2 kmh WSW 19.2 mph30.9 kmh 30.12 in1020.0 mb 0.00 in0.0 mm 0.00 in/hr0.0 mm/hr 0.00 in0.0 mm
02:25 PM 85.3°F29.6°C 49.4°F9.7°C 29% 15.4 mph SW24.8 kmh SW 19.2 mph30.9 kmh 30.11 in1019.6 mb 0.00 in0.0 mm 0.00 in/hr0.0 mm/hr 0.00 in0.0 mm
02:30 PM 85.3°F29.6°C 50.5°F10.3°C 30% 10.9 mph WSW17.5 kmh WSW 16.3 mph26.2 kmh 30.11 in1019.6 mb 0.00 in0.0 mm 0.00 in/hr0.0 mm/hr 0.00 in0.0 mm
02:35 PM 86.0°F30.0°C 49.0°F9.4°C 28% 13.9 mph SW22.4 kmh SW 15.4 mph24.8 kmh 30.11 in1019.6 mb 0.00 in0.0 mm 0.00 in/hr0.0 mm/hr 0.00 in0.0 mm
02:40 PM 85.7°F29.8°C 47.6°F8.7°C 27% 15.3 mph SW24.6 kmh SW 19.0 mph30.6 kmh 30.11 in1019.6 mb 0.00 in0.0 mm 0.00 in/hr0.0 mm/hr 0.00 in0.0 mm
02:45 PM 85.1°F29.5°C 48.2°F9.0°C 28% 11.9 mph WSW19.2 kmh WSW 19.0 mph30.6 kmh 30.11 in1019.6 mb 0.00 in0.0 mm 0.00 in/hr0.0 mm/hr 0.00 in0.0 mm
02:50 PM 85.5°F29.7°C 48.5°F9.2°C 28% 14.8 mph WSW23.8 kmh WSW 17.7 mph28.5 kmh 30.11 in1019.6 mb 0.00 in0.0 mm 0.00 in/hr0.0 mm/hr 0.00 in0.0 mm
02:55 PM 85.3°F29.6°C 50.5°F10.3°C 30% 6.4 mph SSW10.3 kmh SSW 17.7 mph28.5 kmh 30.10 in1019.3 mb 0.00 in0.0 mm 0.00 in/hr0.0 mm/hr 0.00 in0.0 mm
03:01 PM 86.0°F30.0°C 50.0°F10.0°C 29% 11.5 mph SW18.5 kmh SW 15.7 mph25.3 kmh 30.10 in1019.3 mb 0.00 in0.0 mm 0.00 in/hr0.0 mm/hr 0.00 in0.0 mm
03:06 PM 86.2°F30.1°C 50.2°F10.1°C 29% 10.1 mph SW16.3 kmh SW 15.7 mph25.3 kmh 30.10 in1019.3 mb 0.00 in0.0 mm 0.00 in/hr0.0 mm/hr 0.00 in0.0 mm
03:11 PM 86.6°F30.3°C 49.4°F9.7°C 28% 9.4 mph SW15.1 kmh SW 14.1 mph22.7 kmh 30.10 in1019.3 mb 0.00 in0.0 mm 0.00 in/hr0.0 mm/hr 0.00 in0.0 mm
03:15 PM 86.4°F30.2°C 50.3°F10.2°C 29% 9.5 mph SW15.3 kmh SW 13.6 mph21.9 kmh 30.10 in1019.3 mb 0.00 in0.0 mm 0.00 in/hr0.0 mm/hr 0.00 in0.0 mm
03:21 PM 87.1°F30.6°C 51.0°F10.6°C 29% 7.1 mph SSW11.4 kmh SSW 11.6 mph18.7 kmh 30.09 in1019.0 mb 0.00 in0.0 mm 0.00 in/hr0.0 mm/hr 0.00 in0.0 mm
03:26 PM 87.3°F30.7°C 50.0°F10.0°C 28% 12.6 mph SSW20.3 kmh SSW 15.2 mph24.5 kmh 30.09 in1019.0 mb 0.00 in0.0 mm 0.00 in/hr0.0 mm/hr 0.00 in0.0 mm
03:31 PM 87.1°F30.6°C 49.9°F9.9°C 28% 7.4 mph SW11.9 kmh SW 15.2 mph24.5 kmh 30.09 in1019.0 mb 0.00 in0.0 mm 0.00 in/hr0.0 mm/hr 0.00 in0.0 mm
03:36 PM 87.5°F30.8°C 50.1°F10.1°C 28% 10.3 mph WSW16.6 kmh WSW 14.3 mph23.0 kmh 30.09 in1019.0 mb 0.00 in0.0 mm 0.00 in/hr0.0 mm/hr 0.00 in0.0 mm
03:41 PM 87.5°F30.8°C 50.1°F10.1°C 28% 10.5 mph SW16.9 kmh SW 16.3 mph26.2 kmh 30.09 in1019.0 mb 0.00 in0.0 mm 0.00 in/hr0.0 mm/hr 0.00 in0.0 mm
03:46 PM 86.9°F30.5°C 47.5°F8.6°C 26% 7.9 mph SW12.7 kmh SW 16.3 mph26.2 kmh 30.09 in1019.0 mb 0.00 in0.0 mm 0.00 in/hr0.0 mm/hr 0.00 in0.0 mm
03:51 PM 86.2°F30.1°C 47.0°F8.3°C 26% 8.3 mph WSW13.4 kmh WSW 13.9 mph22.4 kmh 30.09 in1019.0 mb 0.00 in0.0 mm 0.00 in/hr0.0 mm/hr 0.00 in0.0 mm
03:56 PM 86.6°F30.3°C 49.4°F9.7°C 28% 8.4 mph SW13.5 kmh SW 13.9 mph22.4 kmh 30.09 in1019.0 mb 0.00 in0.0 mm 0.00 in/hr0.0 mm/hr 0.00 in0.0 mm
04:01 PM 86.9°F30.5°C 49.7°F9.8°C 28% 13.2 mph SW21.2 kmh SW 15.0 mph24.1 kmh 30.09 in1019.0 mb 0.00 in0.0 mm 0.00 in/hr0.0 mm/hr 0.00 in0.0 mm
04:06 PM 87.3°F30.7°C 50.0°F10.0°C 28% 7.6 mph SW12.2 kmh SW 15.0 mph24.1 kmh 30.09 in1019.0 mb 0.00 in0.0 mm 0.00 in/hr0.0 mm/hr 0.00 in0.0 mm
04:11 PM 87.5°F30.8°C 47.0°F8.3°C 25% 15.4 mph WSW24.8 kmh WSW 16.3 mph26.2 kmh 30.09 in1019.0 mb 0.00 in0.0 mm 0.00 in/hr0.0 mm/hr 0.00 in0.0 mm
04:16 PM 87.1°F30.6°C 47.7°F8.7°C 26% 11.8 mph SW19.0 kmh SW 16.3 mph26.2 kmh 30.09 in1019.0 mb 0.00 in0.0 mm 0.00 in/hr0.0 mm/hr 0.00 in0.0 mm
04:21 PM 87.7°F30.9°C 50.3°F10.2°C 28% 9.1 mph S14.6 kmh S 12.8 mph20.6 kmh 30.09 in1019.0 mb 0.00 in0.0 mm 0.00 in/hr0.0 mm/hr 0.00 in0.0 mm
04:26 PM 88.2°F31.2°C 50.8°F10.4°C 28% 10.4 mph S16.7 kmh S 13.2 mph21.2 kmh 30.08 in1018.6 mb 0.00 in0.0 mm 0.00 in/hr0.0 mm/hr 0.00 in0.0 mm
04:32 PM 88.0°F31.1°C 46.4°F8.0°C 24% 14.8 mph WSW23.8 kmh WSW 16.1 mph25.9 kmh 30.08 in1018.6 mb 0.00 in0.0 mm 0.00 in/hr0.0 mm/hr 0.00 in0.0 mm
04:36 PM 87.3°F30.7°C 47.9°F8.8°C 26% 10.0 mph WSW16.1 kmh WSW 17.9 mph28.8 kmh 30.08 in1018.6 mb 0.00 in0.0 mm 0.00 in/hr0.0 mm/hr 0.00 in0.0 mm
04:41 PM 87.1°F30.6°C 47.7°F8.7°C 26% 8.1 mph WSW13.0 kmh WSW 17.9 mph28.8 kmh 30.08 in1018.6 mb 0.00 in0.0 mm 0.00 in/hr0.0 mm/hr 0.00 in0.0 mm
04:46 PM 87.1°F30.6°C 48.8°F9.3°C 27% 9.9 mph SW15.9 kmh SW 15.0 mph24.1 kmh 30.08 in1018.6 mb 0.00 in0.0 mm 0.00 in/hr0.0 mm/hr 0.00 in0.0 mm
04:51 PM 87.8°F31.0°C 49.4°F9.7°C 27% 9.8 mph SW15.8 kmh SW 15.0 mph24.1 kmh 30.08 in1018.6 mb 0.00 in0.0 mm 0.00 in/hr0.0 mm/hr 0.00 in0.0 mm
04:56 PM 88.2°F31.2°C 49.7°F9.8°C 27% 5.6 mph WSW9.0 kmh WSW 10.3 mph16.6 kmh 30.08 in1018.6 mb 0.00 in0.0 mm 0.00 in/hr0.0 mm/hr 0.00 in0.0 mm
05:02 PM 88.4°F31.3°C 46.6°F8.1°C 24% 9.2 mph WSW14.8 kmh WSW 13.0 mph20.9 kmh 30.08 in1018.6 mb 0.00 in0.0 mm 0.00 in/hr0.0 mm/hr 0.00 in0.0 mm
05:07 PM 87.1°F30.6°C 46.6°F8.1°C 25% 10.4 mph W16.7 kmh W 16.6 mph26.7 kmh 30.08 in1018.6 mb 0.00 in0.0 mm 0.00 in/hr0.0 mm/hr 0.00 in0.0 mm
05:12 PM 86.9°F30.5°C 47.5°F8.6°C 26% 6.9 mph WSW11.1 kmh WSW 16.6 mph26.7 kmh 30.08 in1018.6 mb 0.00 in0.0 mm 0.00 in/hr0.0 mm/hr 0.00 in0.0 mm
05:17 PM 87.1°F30.6°C 47.7°F8.7°C 26% 9.9 mph SW15.9 kmh SW 11.4 mph18.3 kmh 30.08 in1018.6 mb 0.00 in0.0 mm 0.00 in/hr0.0 mm/hr 0.00 in0.0 mm
05:22 PM 86.8°F30.4°C 47.4°F8.6°C 26% 5.9 mph SW9.5 kmh SW 12.1 mph19.5 kmh 30.08 in1018.6 mb 0.00 in0.0 mm 0.00 in/hr0.0 mm/hr 0.00 in0.0 mm
05:27 PM 86.8°F30.4°C 47.4°F8.6°C 26% 13.1 mph WSW21.1 kmh WSW 15.7 mph25.3 kmh 30.08 in1018.6 mb 0.00 in0.0 mm 0.00 in/hr0.0 mm/hr 0.00 in0.0 mm
05:32 PM 86.8°F30.4°C 47.4°F8.6°C 26% 4.6 mph SSW7.4 kmh SSW 15.7 mph25.3 kmh 30.08 in1018.6 mb 0.00 in0.0 mm 0.00 in/hr0.0 mm/hr 0.00 in0.0 mm
05:37 PM 87.7°F30.9°C 50.3°F10.2°C 28% 3.0 mph SW4.8 kmh SW 8.3 mph13.4 kmh 30.08 in1018.6 mb 0.00 in0.0 mm 0.00 in/hr0.0 mm/hr 0.00 in0.0 mm
05:42 PM 88.0°F31.1°C 48.5°F9.2°C 26% 5.3 mph SW8.5 kmh SW 10.5 mph16.9 kmh 30.07 in1018.3 mb 0.00 in0.0 mm 0.00 in/hr0.0 mm/hr 0.00 in0.0 mm
05:47 PM 87.8°F31.0°C 47.3°F8.5°C 25% 8.5 mph WSW13.7 kmh WSW 11.9 mph19.2 kmh 30.07 in1018.3 mb 0.00 in0.0 mm 0.00 in/hr0.0 mm/hr 0.00 in0.0 mm
05:52 PM 87.1°F30.6°C 46.6°F8.1°C 25% 6.6 mph NW10.6 kmh NW 13.4 mph21.6 kmh 30.08 in1018.6 mb 0.00 in0.0 mm 0.00 in/hr0.0 mm/hr 0.00 in0.0 mm
05:57 PM 86.9°F30.5°C 47.5°F8.6°C 26% 7.1 mph WSW11.4 kmh WSW 13.4 mph21.6 kmh 30.07 in1018.3 mb 0.00 in0.0 mm 0.00 in/hr0.0 mm/hr 0.00 in0.0 mm
06:03 PM 86.8°F30.4°C 46.4°F8.0°C 25% 9.8 mph WSW15.8 kmh WSW 12.5 mph20.1 kmh 30.08 in1018.6 mb 0.00 in0.0 mm 0.00 in/hr0.0 mm/hr 0.00 in0.0 mm
06:08 PM 86.0°F30.0°C 46.8°F8.2°C 26% 7.7 mph WNW12.4 kmh WNW 12.5 mph20.1 kmh 30.08 in1018.6 mb 0.00 in0.0 mm 0.00 in/hr0.0 mm/hr 0.00 in0.0 mm
06:13 PM 85.7°F29.8°C 46.5°F8.1°C 26% 8.6 mph WSW13.8 kmh WSW 15.0 mph24.1 kmh 30.08 in1018.6 mb 0.00 in0.0 mm 0.00 in/hr0.0 mm/hr 0.00 in0.0 mm
06:18 PM 85.3°F29.6°C 46.2°F7.9°C 26% 13.2 mph SW21.2 kmh SW 15.4 mph24.8 kmh 30.08 in1018.6 mb 0.00 in0.0 mm 0.00 in/hr0.0 mm/hr 0.00 in0.0 mm
06:23 PM 84.8°F29.3°C 47.9°F8.8°C 28% 8.1 mph SW13.0 kmh SW 15.4 mph24.8 kmh 30.08 in1018.6 mb 0.00 in0.0 mm 0.00 in/hr0.0 mm/hr 0.00 in0.0 mm
06:28 PM 83.9°F28.8°C 46.0°F7.8°C 27% 9.9 mph W15.9 kmh W 12.3 mph19.8 kmh 30.08 in1018.6 mb 0.00 in0.0 mm 0.00 in/hr0.0 mm/hr 0.00 in0.0 mm
06:33 PM 83.7°F28.7°C 46.9°F8.3°C 28% 11.0 mph WSW17.7 kmh WSW 13.4 mph21.6 kmh 30.08 in1018.6 mb 0.00 in0.0 mm 0.00 in/hr0.0 mm/hr 0.00 in0.0 mm
06:38 PM 83.9°F28.8°C 47.1°F8.4°C 28% 12.6 mph W20.3 kmh W 17.9 mph28.8 kmh 30.08 in1018.6 mb 0.00 in0.0 mm 0.00 in/hr0.0 mm/hr 0.00 in0.0 mm
06:43 PM 83.9°F28.8°C 47.1°F8.4°C 28% 12.5 mph WSW20.1 kmh WSW 17.9 mph28.8 kmh 30.08 in1018.6 mb 0.00 in0.0 mm 0.00 in/hr0.0 mm/hr 0.00 in0.0 mm
06:48 PM 84.1°F28.9°C 47.3°F8.5°C 28% 15.1 mph WSW24.3 kmh WSW 17.4 mph28.0 kmh 30.08 in1018.6 mb 0.00 in0.0 mm 0.00 in/hr0.0 mm/hr 0.00 in0.0 mm
06:53 PM 84.2°F29.0°C 45.3°F7.4°C 26% 10.6 mph W17.1 kmh W 17.4 mph28.0 kmh 30.08 in1018.6 mb 0.00 in0.0 mm 0.00 in/hr0.0 mm/hr 0.00 in0.0 mm
06:58 PM 84.1°F28.9°C 47.3°F8.5°C 28% 9.8 mph WSW15.8 kmh WSW 12.8 mph20.6 kmh 30.08 in1018.6 mb 0.00 in0.0 mm 0.00 in/hr0.0 mm/hr 0.00 in0.0 mm
07:03 PM 83.9°F28.8°C 46.0°F7.8°C 27% 11.3 mph WSW18.2 kmh WSW 12.8 mph20.6 kmh 30.08 in1018.6 mb 0.00 in0.0 mm 0.00 in/hr0.0 mm/hr 0.00 in0.0 mm
07:08 PM 84.1°F28.9°C 45.1°F7.3°C 26% 11.9 mph W19.2 kmh W 12.5 mph20.1 kmh 30.08 in1018.6 mb 0.00 in0.0 mm 0.00 in/hr0.0 mm/hr 0.00 in0.0 mm
07:13 PM 83.5°F28.6°C 45.7°F7.6°C 27% 7.6 mph W12.2 kmh W 12.5 mph20.1 kmh 30.09 in1019.0 mb 0.00 in0.0 mm 0.00 in/hr0.0 mm/hr 0.00 in0.0 mm
07:19 PM 83.5°F28.6°C 46.7°F8.2°C 28% 10.5 mph SW16.9 kmh SW 12.1 mph19.5 kmh 30.09 in1019.0 mb 0.00 in0.0 mm 0.00 in/hr0.0 mm/hr 0.00 in0.0 mm
07:24 PM 83.2°F28.4°C 46.5°F8.1°C 28% 12.1 mph WSW19.5 kmh WSW 14.5 mph23.3 kmh 30.09 in1019.0 mb 0.00 in0.0 mm 0.00 in/hr0.0 mm/hr 0.00 in0.0 mm
07:29 PM 82.6°F28.1°C 47.0°F8.3°C 29% 8.9 mph WSW14.3 kmh WSW 14.5 mph23.3 kmh 30.09 in1019.0 mb 0.00 in0.0 mm 0.00 in/hr0.0 mm/hr 0.00 in0.0 mm
07:34 PM 82.1°F27.8°C 46.5°F8.1°C 29% 12.6 mph W20.3 kmh W 16.1 mph25.9 kmh 30.09 in1019.0 mb 0.00 in0.0 mm 0.00 in/hr0.0 mm/hr 0.00 in0.0 mm
07:39 PM 81.4°F27.4°C 46.0°F7.8°C 29% 14.3 mph WSW23.0 kmh WSW 16.1 mph25.9 kmh 30.10 in1019.3 mb 0.00 in0.0 mm 0.00 in/hr0.0 mm/hr 0.00 in0.0 mm
07:44 PM 80.6°F27.0°C 46.4°F8.0°C 30% 13.8 mph W22.2 kmh W 16.1 mph25.9 kmh 30.10 in1019.3 mb 0.00 in0.0 mm 0.00 in/hr0.0 mm/hr 0.00 in0.0 mm
07:49 PM 80.3°F26.8°C 46.1°F7.8°C 30% 12.6 mph W20.3 kmh W 16.1 mph25.9 kmh 30.10 in1019.3 mb 0.00 in0.0 mm 0.00 in/hr0.0 mm/hr 0.00 in0.0 mm
07:54 PM 79.6°F26.4°C 45.5°F7.5°C 30% 10.2 mph W16.4 kmh W 17.0 mph27.4 kmh 30.10 in1019.3 mb 0.00 in0.0 mm 0.00 in/hr0.0 mm/hr 0.00 in0.0 mm
07:58 PM 79.0°F26.1°C 45.7°F7.6°C 31% 9.4 mph W15.1 kmh W 17.0 mph27.4 kmh 30.11 in1019.6 mb 0.00 in0.0 mm 0.00 in/hr0.0 mm/hr 0.00 in0.0 mm
08:04 PM 78.7°F25.9°C 45.5°F7.5°C 31% 5.1 mph W8.2 kmh W 11.4 mph18.3 kmh 30.11 in1019.6 mb 0.00 in0.0 mm 0.00 in/hr0.0 mm/hr 0.00 in0.0 mm
08:09 PM 78.1°F25.6°C 45.0°F7.2°C 31% 5.4 mph NW8.7 kmh NW 6.3 mph10.1 kmh 30.11 in1019.6 mb 0.00 in0.0 mm 0.00 in/hr0.0 mm/hr 0.00 in0.0 mm
08:14 PM 77.6°F25.3°C 45.4°F7.4°C 32% 7.6 mph WNW12.2 kmh WNW 8.5 mph13.7 kmh 30.11 in1019.6 mb 0.00 in0.0 mm 0.00 in/hr0.0 mm/hr 0.00 in0.0 mm
08:19 PM 77.0°F25.0°C 44.9°F7.2°C 32% 2.2 mph NW3.5 kmh NW 8.7 mph14.0 kmh 30.11 in1019.6 mb 0.00 in0.0 mm 0.00 in/hr0.0 mm/hr 0.00 in0.0 mm
08:24 PM 76.7°F24.8°C 44.6°F7.0°C 32% 5.7 mph NW9.2 kmh NW 8.7 mph14.0 kmh 30.11 in1019.6 mb 0.00 in0.0 mm 0.00 in/hr0.0 mm/hr 0.00 in0.0 mm
08:29 PM 76.1°F24.5°C 44.8°F7.1°C 33% 5.1 mph NW8.2 kmh NW 7.6 mph12.2 kmh 30.12 in1020.0 mb 0.00 in0.0 mm 0.00 in/hr0.0 mm/hr 0.00 in0.0 mm
08:34 PM 76.0°F24.4°C 44.6°F7.0°C 33% 2.6 mph WNW4.2 kmh WNW 6.7 mph10.8 kmh 30.12 in1020.0 mb 0.00 in0.0 mm 0.00 in/hr0.0 mm/hr 0.00 in0.0 mm
08:39 PM 75.6°F24.2°C 44.4°F6.9°C 33% 2.9 mph NW4.7 kmh NW 5.1 mph8.2 kmh 30.12 in1020.0 mb 0.00 in0.0 mm 0.00 in/hr0.0 mm/hr 0.00 in0.0 mm
08:44 PM 75.2°F24.0°C 44.0°F6.7°C 33% 0.9 mph NNW1.4 kmh NNW 3.6 mph5.8 kmh 30.12 in1020.0 mb 0.00 in0.0 mm 0.00 in/hr0.0 mm/hr 0.00 in0.0 mm
08:49 PM 74.7°F23.7°C 44.3°F6.8°C 34% 3.0 mph ENE4.8 kmh ENE 4.0 mph6.4 kmh 30.13 in1020.3 mb 0.00 in0.0 mm 0.00 in/hr0.0 mm/hr 0.00 in0.0 mm
08:54 PM 74.2°F23.4°C 44.6°F7.0°C 35% 3.4 mph E5.5 kmh E 4.7 mph7.6 kmh 30.13 in1020.3 mb 0.00 in0.0 mm 0.00 in/hr0.0 mm/hr 0.00 in0.0 mm
09:00 PM 73.6°F23.1°C 44.1°F6.7°C 35% 5.1 mph NE8.2 kmh NE 6.3 mph10.1 kmh 30.13 in1020.3 mb 0.00 in0.0 mm 0.00 in/hr0.0 mm/hr 0.00 in0.0 mm
09:05 PM 73.3°F22.9°C 43.7°F6.5°C 35% 6.7 mph 10.8 kmh 8.9 mph14.3 kmh 30.13 in1020.3 mb 0.00 in0.0 mm 0.00 in/hr0.0 mm/hr 0.00 in0.0 mm
09:10 PM 73.1°F22.8°C 43.7°F6.5°C 35% 4.3 mph 6.9 kmh 8.9 mph14.3 kmh 30.14 in1020.7 mb 0.00 in0.0 mm 0.00 in/hr0.0 mm/hr 0.00 in0.0 mm
09:15 PM 72.5°F22.5°C 43.1°F6.2°C 35% 2.7 mph 4.3 kmh 4.7 mph7.6 kmh 30.14 in1020.7 mb 0.00 in0.0 mm 0.00 in/hr0.0 mm/hr 0.00 in0.0 mm
09:20 PM 72.4°F22.4°C 43.0°F6.1°C 35% 2.0 mph N3.2 kmh N 3.1 mph5.0 kmh 30.15 in1021.0 mb 0.00 in0.0 mm 0.00 in/hr0.0 mm/hr 0.00 in0.0 mm
09:25 PM 72.2°F22.3°C 44.4°F6.9°C 37% 3.2 mph NNW5.1 kmh NNW 3.8 mph6.1 kmh 30.15 in1021.0 mb 0.00 in0.0 mm 0.00 in/hr0.0 mm/hr 0.00 in0.0 mm
09:30 PM 72.0°F22.2°C 43.5°F6.4°C 36% 3.0 mph 4.8 kmh 4.0 mph6.4 kmh 30.15 in1021.0 mb 0.00 in0.0 mm 0.00 in/hr0.0 mm/hr 0.00 in0.0 mm
09:35 PM 71.6°F22.0°C 43.8°F6.6°C 37% 2.3 mph 3.7 kmh 4.0 mph6.4 kmh 30.15 in1021.0 mb 0.00 in0.0 mm 0.00 in/hr0.0 mm/hr 0.00 in0.0 mm
09:40 PM 71.3°F21.8°C 43.6°F6.4°C 37% 4.1 mph NNW6.6 kmh NNW 4.7 mph7.6 kmh 30.15 in1021.0 mb 0.00 in0.0 mm 0.00 in/hr0.0 mm/hr 0.00 in0.0 mm
09:45 PM 71.1°F21.7°C 44.1°F6.7°C 38% 1.5 mph NNW2.4 kmh NNW 4.7 mph7.6 kmh 30.16 in1021.3 mb 0.00 in0.0 mm 0.00 in/hr0.0 mm/hr 0.00 in0.0 mm
09:50 PM 70.9°F21.6°C 43.9°F6.6°C 38% 1.7 mph 2.7 kmh 4.0 mph6.4 kmh 30.17 in1021.7 mb 0.00 in0.0 mm 0.00 in/hr0.0 mm/hr 0.00 in0.0 mm
09:55 PM 70.9°F21.6°C 43.9°F6.6°C 38% 5.1 mph 8.2 kmh 5.6 mph9.0 kmh 30.17 in1021.7 mb 0.00 in0.0 mm 0.00 in/hr0.0 mm/hr 0.00 in0.0 mm
10:00 PM 71.1°F21.7°C 44.8°F7.1°C 39% 8.3 mph 13.4 kmh 8.5 mph13.7 kmh 30.17 in1021.7 mb 0.00 in0.0 mm 0.00 in/hr0.0 mm/hr 0.00 in0.0 mm
10:05 PM 71.1°F21.7°C 44.8°F7.1°C 39% 12.6 mph 20.3 kmh 15.9 mph25.6 kmh 30.13 in1020.3 mb 0.00 in0.0 mm 0.00 in/hr0.0 mm/hr 0.00 in0.0 mm
10:10 PM 71.3°F21.8°C 45.0°F7.2°C 39% 13.2 mph 21.2 kmh 18.6 mph29.9 kmh 30.12 in1020.0 mb 0.00 in0.0 mm 0.00 in/hr0.0 mm/hr 0.00 in0.0 mm
10:15 PM 71.5°F21.9°C 45.2°F7.3°C 39% 10.4 mph N16.7 kmh N 18.6 mph29.9 kmh 30.14 in1020.7 mb 0.00 in0.0 mm 0.00 in/hr0.0 mm/hr 0.00 in0.0 mm
10:20 PM 71.3°F21.8°C 45.0°F7.2°C 39% 6.9 mph 11.1 kmh 11.4 mph18.3 kmh 30.14 in1020.7 mb 0.00 in0.0 mm 0.00 in/hr0.0 mm/hr 0.00 in0.0 mm
10:25 PM 70.9°F21.6°C 44.7°F7.1°C 39% 3.9 mph N6.3 kmh N 10.5 mph16.9 kmh 30.14 in1020.7 mb 0.00 in0.0 mm 0.00 in/hr0.0 mm/hr 0.00 in0.0 mm
10:30 PM 70.7°F21.5°C 44.6°F7.0°C 39% 2.5 mph NNW4.0 kmh NNW 7.8 mph12.6 kmh 30.15 in1021.0 mb 0.00 in0.0 mm 0.00 in/hr0.0 mm/hr 0.00 in0.0 mm
10:35 PM 70.4°F21.3°C 44.2°F6.8°C 39% 0.4 mph NNW0.6 kmh NNW 4.7 mph7.6 kmh 30.15 in1021.0 mb 0.00 in0.0 mm 0.00 in/hr0.0 mm/hr 0.00 in0.0 mm
10:40 PM 70.0°F21.1°C 44.7°F7.1°C 40% 1.0 mph E1.6 kmh E 1.3 mph2.1 kmh 30.15 in1021.0 mb 0.00 in0.0 mm 0.00 in/hr0.0 mm/hr 0.00 in0.0 mm
10:45 PM 69.5°F20.8°C 44.1°F6.7°C 40% 1.7 mph E2.7 kmh E 1.8 mph2.9 kmh 30.15 in1021.0 mb 0.00 in0.0 mm 0.00 in/hr0.0 mm/hr 0.00 in0.0 mm
10:50 PM 68.8°F20.4°C 44.1°F6.7°C 41% 0.7 mph ENE1.1 kmh ENE 2.0 mph3.2 kmh 30.16 in1021.3 mb 0.00 in0.0 mm 0.00 in/hr0.0 mm/hr 0.00 in0.0 mm
10:55 PM 68.4°F20.2°C 43.7°F6.5°C 41% 0.9 mph NNE1.4 kmh NNE 2.0 mph3.2 kmh 30.16 in1021.3 mb 0.00 in0.0 mm 0.00 in/hr0.0 mm/hr 0.00 in0.0 mm
11:00 PM 68.4°F20.2°C 43.7°F6.5°C 41% 2.6 mph NNE4.2 kmh NNE 2.7 mph4.3 kmh 30.17 in1021.7 mb 0.00 in0.0 mm 0.00 in/hr0.0 mm/hr 0.00 in0.0 mm
11:05 PM 68.6°F20.3°C 43.9°F6.6°C 41% 5.1 mph NE8.2 kmh NE 5.1 mph8.2 kmh 30.17 in1021.7 mb 0.00 in0.0 mm 0.00 in/hr0.0 mm/hr 0.00 in0.0 mm
11:10 PM 68.4°F20.2°C 43.7°F6.5°C 41% 3.9 mph NE6.3 kmh NE 5.6 mph9.0 kmh 30.17 in1021.7 mb 0.00 in0.0 mm 0.00 in/hr0.0 mm/hr 0.00 in0.0 mm
11:15 PM 68.4°F20.2°C 43.7°F6.5°C 41% 1.9 mph NNE3.1 kmh NNE 5.6 mph9.0 kmh 30.18 in1022.0 mb 0.00 in0.0 mm 0.00 in/hr0.0 mm/hr 0.00 in0.0 mm
11:20 PM 68.4°F20.2°C 43.7°F6.5°C 41% 0.2 mph ESE0.3 kmh ESE 4.0 mph6.4 kmh 30.18 in1022.0 mb 0.00 in0.0 mm 0.00 in/hr0.0 mm/hr 0.00 in0.0 mm
11:25 PM 68.0°F20.0°C 44.0°F6.7°C 42% 2.0 mph SW3.2 kmh SW 2.2 mph3.5 kmh 30.19 in1022.4 mb 0.00 in0.0 mm 0.00 in/hr0.0 mm/hr 0.00 in0.0 mm
11:30 PM 67.7°F19.8°C 43.8°F6.6°C 42% 2.4 mph SSW3.9 kmh SSW 3.1 mph5.0 kmh 30.20 in1022.7 mb 0.00 in0.0 mm 0.00 in/hr0.0 mm/hr 0.00 in0.0 mm
11:35 PM 67.1°F19.5°C 43.8°F6.6°C 43% 2.5 mph SW4.0 kmh SW 3.1 mph5.0 kmh 30.20 in1022.7 mb 0.00 in0.0 mm 0.00 in/hr0.0 mm/hr 0.00 in0.0 mm
11:40 PM 67.0°F19.4°C 44.3°F6.8°C 44% 3.3 mph SSW5.3 kmh SSW 5.8 mph9.3 kmh 30.21 in1023.0 mb 0.00 in0.0 mm 0.00 in/hr0.0 mm/hr 0.00 in0.0 mm
11:45 PM 66.8°F19.3°C 46.4°F8.0°C 48% 9.4 mph SW15.1 kmh SW 10.1 mph16.3 kmh 30.23 in1023.7 mb 0.00 in0.0 mm 0.00 in/hr0.0 mm/hr 0.00 in0.0 mm
11:50 PM 67.0°F19.4°C 46.6°F8.1°C 48% 4.4 mph WSW7.1 kmh WSW 10.7 mph17.2 kmh 30.21 in1023.0 mb 0.00 in0.0 mm 0.00 in/hr0.0 mm/hr 0.00 in0.0 mm
11:55 PM 67.0°F19.4°C 47.8°F8.8°C 50% 5.5 mph SSW8.9 kmh SSW 10.7 mph17.2 kmh 30.23 in1023.7 mb 0.00 in0.0 mm 0.00 in/hr0.0 mm/hr 0.00 in0.0 mm